Time;durP1;ratioP1;P1;durP2;ratioP2;P2;SDS_P1;SDS_P2;PMS_P1;PMS_P2;Temp;Humidity;BMP_temperature;BMP_pressure;BME280_temperature;BME280_humidity;BME280_pressure;Samples;Min_cycle;Max_cycle;Signal;HPM_P1;HPM_P2
2023/06/09 00:01:58;;;;;;;13.75;12.35;;;19.60;99.60;;;;;;5031189;28;20030;-48
2023/06/09 00:04:45;;;;;;;14.82;13.27;;;19.70;99.90;;;;;;5031467;28;20060;-50
2023/06/09 00:07:33;;;;;;;16.20;14.60;;;19.60;99.80;;;;;;5032068;28;20029;-51
2023/06/09 00:10:19;;;;;;;13.68;12.32;;;19.60;99.90;;;;;;5031833;28;20053;-50
2023/06/09 00:13:05;;;;;;;12.27;11.18;;;19.60;99.90;;;;;;5028851;28;20033;-50
2023/06/09 00:15:51;;;;;;;11.90;10.70;;;19.60;99.90;;;;;;5032946;28;20061;-49
2023/06/09 00:18:40;;;;;;;12.25;11.05;;;19.50;99.90;;;;;;5031443;28;20041;-52
2023/06/09 00:21:26;;;;;;;12.98;11.68;;;19.50;99.90;;;;;;5031828;28;20036;-51
2023/06/09 00:24:12;;;;;;;12.82;11.52;;;19.40;99.90;;;;;;5031073;28;20104;-51
2023/06/09 00:26:58;;;;;;;12.43;11.23;;;19.30;99.90;;;;;;5031291;28;20079;-51
2023/06/09 00:29:44;;;;;;;12.45;11.27;;;19.30;99.90;;;;;;5031416;28;20040;-50
2023/06/09 00:32:30;;;;;;;13.50;12.20;;;19.30;99.90;;;;;;5031365;28;20029;-54
2023/06/09 00:35:16;;;;;;;13.35;11.98;;;19.20;99.90;;;;;;5028459;28;20115;-49
2023/06/09 00:38:03;;;;;;;15.32;11.98;;;19.20;99.90;;;;;;5012541;28;20037;-45
2023/06/09 00:40:52;;;;;;;12.38;11.38;;;19.10;99.90;;;;;;5012864;28;20113;-46
2023/06/09 00:43:38;;;;;;;13.02;11.82;;;19.10;99.90;;;;;;5011777;28;20022;-50
2023/06/09 00:46:24;;;;;;;12.85;11.65;;;19.10;99.90;;;;;;5015792;28;20391;-49
2023/06/09 00:49:11;;;;;;;12.98;11.82;;;19.10;99.90;;;;;;5033332;28;20026;-50
2023/06/09 00:51:57;;;;;;;12.48;11.30;;;19.00;99.90;;;;;;5035424;28;20095;-46
2023/06/09 00:54:44;;;;;;;13.63;11.85;;;19.00;99.90;;;;;;5035328;28;20196;-46
2023/06/09 00:57:33;;;;;;;13.77;12.48;;;19.00;99.90;;;;;;5035976;28;20075;-47
2023/06/09 01:00:24;;;;;;;13.45;12.05;;;19.00;99.90;;;;;;5036613;28;20021;-46
2023/06/09 01:03:10;;;;;;;14.05;12.63;;;18.90;99.90;;;;;;5035762;28;20037;-45
2023/06/09 01:06:08;;;;;;;14.07;12.57;;;18.90;99.90;;;;;;5035303;28;20034;-45
2023/06/09 01:09:14;;;;;;;14.95;12.93;;;18.80;99.90;;;;;;5035941;28;20095;-52
2023/06/09 01:12:10;;;;;;;14.23;13.02;;;18.80;99.90;;;;;;5033494;28;20083;-52
2023/06/09 01:15:05;;;;;;;14.40;12.95;;;18.80;99.90;;;;;;5035921;28;20414;-50
2023/06/09 01:17:54;;;;;;;;;;;18.70;99.90;;;;;;5035178;28;20057;-50
2023/06/09 01:21:02;;;;;;;14.45;13.25;;;18.70;99.90;;;;;;5037054;28;19912;-49
2023/06/09 01:24:28;;;;;;;12.88;11.77;;;18.70;99.90;;;;;;5034159;28;20022;-49
2023/06/09 01:27:18;;;;;;;13.32;12.13;;;18.60;99.90;;;;;;5034467;28;20030;-49
2023/06/09 01:30:06;;;;;;;14.52;13.25;;;18.60;99.90;;;;;;5029457;28;20030;-47
2023/06/09 01:32:52;;;;;;;14.85;13.30;;;18.60;99.90;;;;;;5015002;28;20034;-48
2023/06/09 01:35:40;;;;;;;14.25;12.95;;;18.50;99.90;;;;;;5014444;28;20026;-48
2023/06/09 01:38:26;;;;;;;14.43;12.90;;;18.40;99.90;;;;;;5015965;28;20034;-50
2023/06/09 01:41:12;;;;;;;13.82;12.63;;;18.40;99.90;;;;;;5016167;28;20022;-50
2023/06/09 01:43:58;;;;;;;13.88;12.68;;;18.40;99.90;;;;;;5016725;28;20022;-50
2023/06/09 01:46:44;;;;;;;14.35;12.85;;;18.40;99.90;;;;;;5018712;28;20029;-49
2023/06/09 01:49:41;;;;;;;13.65;12.35;;;18.30;99.90;;;;;;5027545;28;20038;-50
2023/06/09 01:52:36;;;;;;;14.90;13.43;;;18.30;99.90;;;;;;5025769;28;20026;-47
2023/06/09 01:55:30;;;;;;;14.95;13.43;;;18.20;99.90;;;;;;5033915;28;20033;-47
2023/06/09 01:58:33;;;;;;;15.43;13.93;;;18.20;99.90;;;;;;5033313;28;20026;-49
2023/06/09 02:01:21;;;;;;;14.45;13.05;;;18.00;99.90;;;;;;5034315;28;20132;-51
2023/06/09 02:04:11;;;;;;;14.40;12.90;;;18.00;99.90;;;;;;5034054;28;20099;-47
2023/06/09 02:06:58;;;;;;;13.43;12.20;;;18.00;99.90;;;;;;5034023;28;20494;-47
2023/06/09 02:09:45;;;;;;;14.05;12.65;;;18.00;99.90;;;;;;5020356;28;20034;-50
2023/06/09 02:12:32;;;;;;;15.40;13.98;;;18.00;99.90;;;;;;5014169;28;20026;-47
2023/06/09 02:15:19;;;;;;;14.63;13.32;;;17.90;99.90;;;;;;5013514;28;20026;-50
2023/06/09 02:18:05;;;;;;;15.38;13.98;;;17.90;99.90;;;;;;5019993;28;20065;-50
2023/06/09 02:20:51;;;;;;;14.50;13.10;;;17.80;99.90;;;;;;5032670;28;20092;-49
2023/06/09 02:23:40;;;;;;;15.43;13.93;;;17.80;99.90;;;;;;5033993;28;20136;-53
2023/06/09 02:26:26;;;;;;;16.45;14.63;;;17.80;99.90;;;;;;5032015;28;20026;-48
2023/06/09 02:29:12;;;;;;;15.63;14.20;;;17.70;99.90;;;;;;5030867;28;20026;-49
2023/06/09 02:31:59;;;;;;;15.82;14.30;;;17.70;99.90;;;;;;5033928;28;20030;-49
2023/06/09 02:34:45;;;;;;;20.35;15.13;;;17.60;99.90;;;;;;5033782;28;20029;-52
2023/06/09 02:37:31;;;;;;;17.73;14.88;;;17.50;99.90;;;;;;5033871;28;20045;-50
2023/06/09 02:40:18;;;;;;;15.73;14.35;;;17.50;99.90;;;;;;5034673;28;20025;-48
2023/06/09 02:43:04;;;;;;;15.27;13.88;;;17.50;99.90;;;;;;5032631;28;20021;-47
2023/06/09 02:45:51;;;;;;;16.13;14.55;;;17.60;99.90;;;;;;5021877;28;20034;-52
2023/06/09 02:48:37;;;;;;;16.30;14.63;;;17.60;99.90;;;;;;5015077;28;20029;-51
2023/06/09 02:51:23;;;;;;;16.80;15.20;;;17.60;99.90;;;;;;5013932;28;20037;-51
2023/06/09 02:54:09;;;;;;;17.02;15.43;;;17.70;99.90;;;;;;5013943;28;20041;-54
2023/06/09 02:56:56;;;;;;;17.80;15.52;;;17.60;99.90;;;;;;5013799;28;20033;-55
2023/06/09 02:59:42;;;;;;;16.98;15.27;;;17.60;99.90;;;;;;5013257;28;20056;-52
2023/06/09 03:02:27;;;;;;;17.50;15.32;;;17.50;99.90;;;;;;5014434;28;20036;-54
2023/06/09 03:05:13;;;;;;;18.88;16.08;;;17.40;99.90;;;;;;5018765;28;20437;-56
2023/06/09 03:07:59;;;;;;;19.50;16.88;;;17.40;99.90;;;;;;5033582;28;20234;-53
2023/06/09 03:10:45;;;;;;;17.85;16.13;;;17.30;99.90;;;;;;5032959;28;20510;-54
2023/06/09 03:13:32;;;;;;;18.80;17.05;;;17.30;99.90;;;;;;5033225;28;20095;-54
2023/06/09 03:16:18;;;;;;;17.45;15.77;;;17.30;99.90;;;;;;5025478;28;20100;-54
2023/06/09 03:19:03;;;;;;;18.27;16.48;;;17.30;99.90;;;;;;5012634;28;20074;-51
2023/06/09 03:21:52;;;;;;;18.17;16.25;;;17.30;99.90;;;;;;5012520;28;20514;-54
2023/06/09 03:24:39;;;;;;;16.80;15.10;;;17.40;99.90;;;;;;5013091;28;20030;-51
2023/06/09 03:27:24;;;;;;;17.63;15.93;;;17.40;99.90;;;;;;5013685;28;20030;-52
2023/06/09 03:30:11;;;;;;;16.20;14.80;;;17.50;99.90;;;;;;5012567;28;20112;-53
2023/06/09 03:32:57;;;;;;;17.02;15.32;;;17.60;99.90;;;;;;5014229;28;20030;-53
2023/06/09 03:35:43;;;;;;;17.13;15.35;;;17.60;99.90;;;;;;5013262;28;20052;-54
2023/06/09 03:38:29;;;;;;;16.40;14.80;;;17.60;99.90;;;;;;5012800;28;20040;-50
2023/06/09 03:41:15;;;;;;;19.83;17.75;;;17.60;99.90;;;;;;5014135;28;20026;-52
2023/06/09 03:44:01;;;;;;;16.50;14.80;;;17.70;99.90;;;;;;5018094;28;20132;-56
2023/06/09 03:46:47;;;;;;;17.42;15.73;;;17.70;99.90;;;;;;5031992;28;20037;-51
2023/06/09 03:49:33;;;;;;;15.70;13.95;;;17.80;99.90;;;;;;5032451;28;20053;-52
2023/06/09 03:52:21;;;;;;;15.90;14.40;;;17.80;99.90;;;;;;5032682;28;20029;-52
2023/06/09 03:55:07;;;;;;;16.27;14.57;;;17.80;99.90;;;;;;5032219;28;20025;-52
2023/06/09 03:57:53;;;;;;;16.00;14.40;;;17.90;99.90;;;;;;5032275;28;20029;-47
2023/06/09 04:00:39;;;;;;;16.48;14.82;;;17.90;99.90;;;;;;5038294;28;20044;-49
2023/06/09 04:03:25;;;;;;;16.38;14.18;;;18.00;99.90;;;;;;5039902;28;20025;-50
2023/06/09 04:06:11;;;;;;;16.85;15.15;;;18.00;99.90;;;;;;5040122;28;20033;-49
2023/06/09 04:08:57;;;;;;;17.27;15.52;;;18.00;99.90;;;;;;5037137;28;20028;-49
2023/06/09 04:11:43;;;;;;;15.60;14.18;;;18.00;99.90;;;;;;5037009;28;20097;-49
2023/06/09 04:14:29;;;;;;;15.68;14.02;;;17.90;99.90;;;;;;5032885;28;20026;-50
2023/06/09 04:17:15;;;;;;;16.27;14.68;;;18.00;99.90;;;;;;5032082;28;20494;-53
2023/06/09 04:20:04;;;;;;;16.13;14.63;;;18.00;99.90;;;;;;5030794;28;20056;-50
2023/06/09 04:22:51;;;;;;;17.65;15.20;;;18.00;99.90;;;;;;5032119;28;20032;-49
2023/06/09 04:25:37;;;;;;;17.42;15.77;;;18.00;99.90;;;;;;5033385;28;20076;-51
2023/06/09 04:28:24;;;;;;;16.92;15.27;;;18.00;99.90;;;;;;5031763;28;20072;-49
2023/06/09 04:31:11;;;;;;;24.40;17.05;;;18.00;99.90;;;;;;5031870;28;20044;-50
2023/06/09 04:34:05;;;;;;;16.42;14.82;;;17.90;99.90;;;;;;5032456;28;20406;-53
2023/06/09 04:36:52;;;;;;;17.90;16.05;;;17.90;99.90;;;;;;5030670;28;20059;-52
2023/06/09 04:39:41;;;;;;;18.67;16.75;;;17.90;99.90;;;;;;5031981;28;20541;-48
2023/06/09 04:42:27;;;;;;;19.15;15.90;;;18.00;99.90;;;;;;5026405;28;20034;-51
2023/06/09 04:45:13;;;;;;;17.67;15.85;;;17.90;99.90;;;;;;5011539;28;20026;-50
2023/06/09 04:48:00;;;;;;;18.65;16.83;;;17.90;99.90;;;;;;5011358;28;20068;-50
2023/06/09 04:50:47;;;;;;;18.90;16.50;;;17.90;99.90;;;;;;5011996;28;20117;-48
2023/06/09 04:53:34;;;;;;;17.95;16.02;;;17.80;99.90;;;;;;5011580;28;20034;-46
2023/06/09 04:56:20;;;;;;;17.45;15.82;;;17.80;99.90;;;;;;5011624;28;20034;-47
2023/06/09 04:59:07;;;;;;;17.98;16.08;;;18.00;99.90;;;;;;5013061;28;20038;-51
2023/06/09 05:01:53;;;;;;;17.33;15.70;;;18.00;99.90;;;;;;5011047;28;20088;-51
2023/06/09 05:04:39;;;;;;;20.23;17.42;;;18.00;99.90;;;;;;5012796;28;20045;-50
2023/06/09 05:07:25;;;;;;;20.33;16.20;;;18.10;99.90;;;;;;5013132;28;20061;-49
2023/06/09 05:10:11;;;;;;;18.67;16.83;;;18.00;99.90;;;;;;5014164;28;20030;-50
2023/06/09 05:12:57;;;;;;;18.17;16.02;;;18.00;99.90;;;;;;5016270;28;20041;-52
2023/06/09 05:15:43;;;;;;;18.45;16.55;;;18.00;99.90;;;;;;5032100;28;20119;-49
2023/06/09 05:18:30;;;;;;;20.80;17.48;;;18.00;99.90;;;;;;5017325;28;20113;-50
2023/06/09 05:21:16;;;;;;;17.92;16.23;;;18.00;99.90;;;;;;5012880;28;20028;-54
2023/06/09 05:24:02;;;;;;;19.90;17.88;;;18.00;99.90;;;;;;5028345;28;20033;-52
2023/06/09 05:26:48;;;;;;;19.67;17.75;;;18.10;99.90;;;;;;5032511;28;20036;-49
2023/06/09 05:29:34;;;;;;;20.65;18.70;;;18.10;99.90;;;;;;5030867;28;20029;-53
2023/06/09 05:32:20;;;;;;;19.45;17.55;;;18.10;99.90;;;;;;5033773;28;20375;-50
2023/06/09 05:35:06;;;;;;;19.45;17.48;;;18.20;99.90;;;;;;5027362;28;20044;-49
2023/06/09 05:37:53;;;;;;;19.17;17.42;;;18.20;99.90;;;;;;5035183;28;20593;-50
2023/06/09 05:40:39;;;;;;;17.70;16.00;;;18.00;99.90;;;;;;5018206;28;20032;-51
2023/06/09 05:43:26;;;;;;;17.75;16.05;;;18.00;99.90;;;;;;5034176;28;20508;-53
2023/06/09 05:46:12;;;;;;;21.02;18.77;;;18.00;99.90;;;;;;5026991;28;20025;-55
2023/06/09 05:48:58;;;;;;;21.83;19.63;;;18.00;99.90;;;;;;5034217;28;20102;-53
2023/06/09 05:51:44;;;;;;;18.70;16.63;;;18.00;99.90;;;;;;5031945;28;20119;-53
2023/06/09 05:54:30;;;;;;;19.98;17.88;;;18.00;99.90;;;;;;5033574;28;20451;-53
2023/06/09 05:57:18;;;;;;;19.92;17.95;;;18.10;99.90;;;;;;5033501;28;20033;-53
2023/06/09 06:00:07;;;;;;;19.60;17.48;;;18.10;99.90;;;;;;5025956;28;20091;-53
2023/06/09 06:02:53;;;;;;;19.50;17.48;;;18.10;99.90;;;;;;5029698;28;20398;-52
2023/06/09 06:05:40;;;;;;;20.92;18.83;;;18.20;99.90;;;;;;5033888;28;20131;-52
2023/06/09 06:08:25;;;;;;;19.73;17.73;;;18.30;99.90;;;;;;5032736;28;20033;-52
2023/06/09 06:11:11;;;;;;;19.65;17.60;;;18.30;99.90;;;;;;5015060;28;20037;-53
2023/06/09 06:13:57;;;;;;;19.83;17.30;;;18.30;99.90;;;;;;5015327;28;20030;-50
2023/06/09 06:16:43;;;;;;;18.98;15.88;;;18.40;99.90;;;;;;5013669;28;20026;-53
2023/06/09 06:19:29;;;;;;;18.75;16.70;;;18.60;99.90;;;;;;5021023;28;20026;-54
2023/06/09 06:22:15;;;;;;;19.02;16.33;;;18.80;99.90;;;;;;5028272;28;20022;-51
2023/06/09 06:25:02;;;;;;;18.30;15.68;;;18.90;99.90;;;;;;5017682;28;20034;-55
2023/06/09 06:27:48;;;;;;;16.58;14.75;;;19.10;99.90;;;;;;5013547;28;20066;-53
2023/06/09 06:30:37;;;;;;;17.38;15.23;;;19.40;99.90;;;;;;5028949;28;20030;-52
2023/06/09 06:33:23;;;;;;;16.33;14.57;;;19.50;99.90;;;;;;5030268;28;20033;-54
2023/06/09 06:36:10;;;;;;;17.33;14.43;;;19.60;99.90;;;;;;5032222;28;20506;-55
2023/06/09 06:38:55;;;;;;;15.38;13.65;;;19.70;99.90;;;;;;5032880;28;20116;-55
2023/06/09 06:41:41;;;;;;;18.30;14.65;;;20.00;99.90;;;;;;5026320;28;20060;-55
2023/06/09 06:44:27;;;;;;;16.58;14.18;;;20.20;99.90;;;;;;5024272;28;20079;-52
2023/06/09 06:47:13;;;;;;;15.38;13.77;;;20.30;99.90;;;;;;5034194;28;20554;-50
2023/06/09 06:49:59;;;;;;;15.80;13.88;;;20.50;99.50;;;;;;5024645;28;20120;-48
2023/06/09 06:52:48;;;;;;;15.43;13.80;;;20.50;98.40;;;;;;5021318;28;20398;-48
2023/06/09 06:55:35;;;;;;;18.83;15.18;;;20.50;98.80;;;;;;5021749;28;20025;-47
2023/06/09 06:58:21;;;;;;;15.15;12.50;;;20.50;98.50;;;;;;5032045;28;20033;-50
2023/06/09 07:01:07;;;;;;;14.48;12.95;;;20.60;98.20;;;;;;5024268;28;20506;-48
2023/06/09 07:03:55;;;;;;;14.13;12.77;;;20.70;97.00;;;;;;5023587;28;20045;-48
2023/06/09 07:06:41;;;;;;;13.38;12.02;;;20.70;96.90;;;;;;5032109;28;20045;-52
2023/06/09 07:09:28;;;;;;;13.10;11.48;;;20.70;96.90;;;;;;5021126;28;20026;-48
2023/06/09 07:12:14;;;;;;;14.10;11.77;;;20.90;96.80;;;;;;5023824;28;20030;-48
2023/06/09 07:15:00;;;;;;;15.00;13.40;;;20.90;96.60;;;;;;5022493;28;20029;-48
2023/06/09 07:17:46;;;;;;;13.05;11.60;;;20.80;97.00;;;;;;5025184;28;20067;-47
2023/06/09 07:20:31;;;;;;;15.85;12.55;;;20.90;97.20;;;;;;5023730;28;20034;-49
2023/06/09 07:23:17;;;;;;;13.50;11.88;;;21.00;97.20;;;;;;5021096;28;20518;-48
2023/06/09 07:26:03;;;;;;;15.27;12.10;;;21.20;97.30;;;;;;5018783;28;20084;-49
2023/06/09 07:28:50;;;;;;;12.50;11.20;;;21.40;96.40;;;;;;5022589;28;20096;-48
2023/06/09 07:31:36;;;;;;;10.70;9.68;;;21.40;96.10;;;;;;5028827;28;20072;-49
2023/06/09 07:34:26;;;;;;;12.00;10.18;;;21.60;93.00;;;;;;5019947;28;20064;-48
2023/06/09 07:37:13;;;;;;;12.85;10.10;;;21.70;92.30;;;;;;5030902;28;20521;-49
2023/06/09 07:39:59;;;;;;;13.18;10.30;;;21.60;91.80;;;;;;5027769;28;20032;-48
2023/06/09 07:42:45;;;;;;;13.23;9.73;;;21.60;91.70;;;;;;5031315;28;20449;-48
2023/06/09 07:45:31;;;;;;;11.00;9.43;;;21.70;92.00;;;;;;5030962;28;20025;-49
2023/06/09 07:48:17;;;;;;;11.60;10.20;;;21.80;91.80;;;;;;5028312;28;20584;-48
2023/06/09 07:51:03;;;;;;;11.95;9.52;;;21.70;91.60;;;;;;5023468;28;20045;-52
2023/06/09 07:53:49;;;;;;;15.18;10.63;;;21.50;91.70;;;;;;5026175;28;20043;-48
2023/06/09 07:56:36;;;;;;;12.57;10.38;;;21.50;92.30;;;;;;5017940;28;20473;-51
2023/06/09 07:59:22;;;;;;;11.88;10.52;;;21.60;92.50;;;;;;5028896;28;20041;-50
2023/06/09 08:02:08;;;;;;;10.93;9.80;;;21.60;92.50;;;;;;5026790;28;20033;-56
2023/06/09 08:04:54;;;;;;;14.07;10.45;;;21.80;92.30;;;;;;5025551;28;20407;-58
2023/06/09 08:07:40;;;;;;;12.52;10.38;;;21.90;91.30;;;;;;5019934;28;20451;-56
2023/06/09 08:10:26;;;;;;;11.02;9.90;;;21.90;91.00;;;;;;5019203;28;20125;-53
2023/06/09 08:13:15;;;;;;;11.75;10.00;;;22.00;91.20;;;;;;5026403;28;20674;-55
2023/06/09 08:16:01;;;;;;;9.98;9.07;;;22.30;90.90;;;;;;5021825;28;20120;-52
2023/06/09 08:18:47;;;;;;;11.93;9.82;;;22.50;89.00;;;;;;5027754;28;20041;-55
2023/06/09 08:21:33;;;;;;;9.98;8.98;;;22.50;89.60;;;;;;5022752;28;20530;-56
2023/06/09 08:24:19;;;;;;;11.10;9.90;;;22.40;90.70;;;;;;5032146;28;20490;-57
2023/06/09 08:27:07;;;;;;;13.63;10.27;;;22.60;90.50;;;;;;5025296;28;20041;-56
2023/06/09 08:29:53;;;;;;;12.02;10.48;;;22.80;89.90;;;;;;5030349;28;20072;-55
2023/06/09 08:32:40;;;;;;;11.20;9.93;;;22.80;89.60;;;;;;5031129;28;20406;-57
2023/06/09 08:35:26;;;;;;;14.10;11.73;;;22.80;90.10;;;;;;5032381;28;20060;-56
2023/06/09 08:38:12;;;;;;;12.57;11.38;;;23.00;90.60;;;;;;5030681;28;20057;-53
2023/06/09 08:41:07;;;;;;;11.93;10.10;;;23.20;89.70;;;;;;5031697;28;20029;-55
2023/06/09 08:43:53;;;;;;;10.40;9.25;;;23.20;88.00;;;;;;5019281;28;20487;-56
2023/06/09 08:46:40;;;;;;;12.52;9.80;;;23.10;88.40;;;;;;5012890;28;20364;-57
2023/06/09 08:49:27;;;;;;;10.38;9.25;;;23.20;89.20;;;;;;5010711;28;20023;-56
2023/06/09 08:52:13;;;;;;;11.32;8.98;;;23.10;87.20;;;;;;5012144;28;20110;-56
2023/06/09 08:54:59;;;;;;;9.88;8.82;;;23.20;87.20;;;;;;5011098;28;20030;-56
2023/06/09 08:57:47;;;;;;;10.88;8.73;;;23.20;86.30;;;;;;5012008;28;20057;-55
2023/06/09 09:00:33;;;;;;;25.02;18.40;;;23.40;85.80;;;;;;5012144;28;20026;-53
2023/06/09 09:03:19;;;;;;;10.25;8.35;;;23.60;84.30;;;;;;5021676;28;20018;-53
2023/06/09 09:06:05;;;;;;;9.52;8.52;;;23.80;83.80;;;;;;5033187;28;20109;-55
2023/06/09 09:08:51;;;;;;;9.45;8.48;;;24.00;83.30;;;;;;5035959;28;20029;-54
2023/06/09 09:11:37;;;;;;;11.27;9.73;;;23.90;83.40;;;;;;5030563;28;20072;-55
2023/06/09 09:14:23;;;;;;;9.35;8.40;;;23.80;83.30;;;;;;5032201;28;20394;-54
2023/06/09 09:17:13;;;;;;;9.48;8.52;;;23.80;84.00;;;;;;5014285;28;20510;-57
2023/06/09 09:20:07;;;;;;;9.02;8.00;;;24.10;83.70;;;;;;5022315;28;20029;-56
2023/06/09 09:22:53;;;;;;;10.93;8.13;;;24.40;82.50;;;;;;5034925;28;20025;-54
2023/06/09 09:25:39;;;;;;;13.45;7.50;;;24.70;82.40;;;;;;5033302;28;20049;-56
2023/06/09 09:28:25;;;;;;;10.45;7.72;;;24.70;79.90;;;;;;5033831;28;20056;-56
2023/06/09 09:31:11;;;;;;;8.20;6.70;;;24.60;77.90;;;;;;5034403;28;20029;-57
2023/06/09 09:33:57;;;;;;;8.30;7.03;;;24.50;79.30;;;;;;5033636;28;20091;-53
2023/06/09 09:36:45;;;;;;;7.97;7.18;;;24.80;79.10;;;;;;5034363;28;20498;-57
2023/06/09 09:39:31;;;;;;;8.15;7.35;;;24.80;79.20;;;;;;5035409;28;20094;-55
2023/06/09 09:42:19;;;;;;;8.23;7.15;;;24.90;79.00;;;;;;5028078;28;20022;-51
2023/06/09 09:45:06;;;;;;;8.27;7.22;;;24.90;78.70;;;;;;5015323;28;20026;-56
2023/06/09 09:47:52;;;;;;;8.48;7.30;;;25.20;78.80;;;;;;5015505;28;20451;-52
2023/06/09 09:50:40;;;;;;;8.07;7.38;;;25.10;77.70;;;;;;5016035;28;20043;-53
2023/06/09 09:53:26;;;;;;;7.95;7.22;;;25.30;76.90;;;;;;5018201;28;20026;-56
2023/06/09 09:56:14;;;;;;;10.35;7.88;;;25.10;76.20;;;;;;5015876;28;20084;-56
2023/06/09 09:59:02;;;;;;;8.82;7.60;;;25.20;76.80;;;;;;5025566;28;20084;-53
2023/06/09 10:01:49;;;;;;;9.90;8.07;;;25.20;75.90;;;;;;5013627;28;20033;-57
2023/06/09 10:04:36;;;;;;;11.48;8.52;;;25.30;76.30;;;;;;5014970;28;20066;-56
2023/06/09 10:07:26;;;;;;;11.27;8.32;;;25.40;76.10;;;;;;5014760;28;20128;-54
2023/06/09 10:10:12;;;;;;;13.73;8.10;;;25.50;76.50;;;;;;5020791;28;20029;-56
2023/06/09 10:13:00;;;;;;;12.68;8.20;;;25.50;76.10;;;;;;5015150;28;20060;-52
2023/06/09 10:15:46;;;;;;;9.40;7.20;;;25.50;75.70;;;;;;5014092;28;20030;-56
2023/06/09 10:18:33;;;;;;;12.10;7.72;;;25.80;76.50;;;;;;5016959;28;20033;-56
2023/06/09 10:21:20;;;;;;;9.43;7.22;;;26.00;75.80;;;;;;5023758;28;20044;-54
2023/06/09 10:24:07;;;;;;;10.00;7.63;;;26.20;74.10;;;;;;5014604;28;20160;-57
2023/06/09 10:26:55;;;;;;;9.95;7.90;;;26.20;73.90;;;;;;5014472;28;20402;-56
2023/06/09 10:29:41;;;;;;;9.68;7.90;;;26.20;73.40;;;;;;5013597;28;20113;-55
2023/06/09 10:32:30;;;;;;;9.50;7.53;;;26.30;73.80;;;;;;5012901;28;20018;-56
2023/06/09 10:35:19;;;;;;;10.90;7.93;;;26.40;73.60;;;;;;5030927;28;20033;-57
2023/06/09 10:38:22;;;;;;;18.75;9.80;;;26.50;73.20;;;;;;5024600;28;20482;-57
2023/06/09 10:41:19;;;;;;;18.90;10.63;;;26.60;73.20;;;;;;5014949;28;20059;-56
2023/06/09 10:44:58;;;;;;;20.20;9.60;;;26.80;72.90;;;;;;5014881;28;20033;-54
2023/06/09 10:47:49;;;;;;;15.93;9.85;;;26.70;72.50;;;;;;4976061;28;20027;-57
2023/06/09 10:50:35;;;;;;;10.65;8.20;;;26.90;73.20;;;;;;5022756;28;20124;-57
2023/06/09 10:53:22;;;;;;;11.02;8.35;;;27.10;72.70;;;;;;5025383;28;20033;-56
2023/06/09 10:56:33;;;;;;;8.00;7.20;;;27.10;71.50;;;;;;5013272;28;20069;-50
2023/06/09 10:59:25;;;;;;;12.43;8.23;;;27.10;72.10;;;;;;5026983;28;20039;-57
2023/06/09 11:02:12;;;;;;;8.90;7.63;;;27.30;71.60;;;;;;5032982;28;20020;-58
2023/06/09 11:04:58;;;;;;;13.48;8.25;;;26.90;71.80;;;;;;5032754;28;20022;-58
2023/06/09 11:07:52;;;;;;;9.23;8.10;;;26.90;71.80;;;;;;5032685;28;20120;-55
2023/06/09 11:10:39;;;;;;;8.60;7.70;;;26.80;70.40;;;;;;5033442;28;20092;-54
2023/06/09 11:13:39;;;;;;;9.63;7.85;;;27.00;70.20;;;;;;5032526;28;20494;-53
2023/06/09 11:16:25;;;;;;;12.05;8.90;;;27.10;71.40;;;;;;5032763;28;20038;-51
2023/06/09 11:19:23;;;;;;;13.88;8.85;;;27.20;71.20;;;;;;5033101;28;20038;-53
2023/06/09 11:22:10;;;;;;;10.05;8.00;;;27.40;69.40;;;;;;5026678;28;20402;-51
2023/06/09 11:24:57;;;;;;;11.85;8.25;;;27.50;69.50;;;;;;5013015;28;20106;-54
2023/06/09 11:27:46;;;;;;;9.35;8.35;;;27.50;69.30;;;;;;5012133;28;20419;-56
2023/06/09 11:30:32;;;;;;;9.40;8.05;;;27.60;68.80;;;;;;5013304;28;20057;-54
2023/06/09 11:33:39;;;;;;;11.40;8.05;;;27.60;68.70;;;;;;5017133;28;20036;-52
2023/06/09 11:36:27;;;;;;;8.38;7.68;;;27.50;67.30;;;;;;5031910;28;20029;-54
2023/06/09 11:39:14;;;;;;;13.13;8.10;;;27.50;67.70;;;;;;5033799;28;20521;-53
2023/06/09 11:42:00;;;;;;;9.85;8.38;;;27.30;68.00;;;;;;5014417;28;20217;-52
2023/06/09 11:44:47;;;;;;;10.73;8.13;;;27.30;69.40;;;;;;5013810;28;20025;-55
2023/06/09 11:47:33;;;;;;;9.38;8.20;;;27.30;69.00;;;;;;5013501;28;20034;-54
2023/06/09 11:50:19;;;;;;;9.77;8.38;;;27.20;68.50;;;;;;5013455;28;20390;-51
2023/06/09 11:53:08;;;;;;;17.27;10.88;;;27.40;69.30;;;;;;5013269;28;20081;-51
2023/06/09 11:56:03;;;;;;;9.73;8.82;;;27.70;68.70;;;;;;5012054;28;20022;-52
2023/06/09 11:58:53;;;;;;;9.65;8.65;;;27.50;67.00;;;;;;5012288;28;20034;-54
2023/06/09 12:01:40;;;;;;;8.75;7.70;;;27.50;67.00;;;;;;5020248;28;20025;-54
2023/06/09 12:04:26;;;;;;;9.98;7.88;;;27.60;66.20;;;;;;5032707;28;20568;-54
2023/06/09 12:07:17;;;;;;;9.40;7.60;;;27.90;66.70;;;;;;5032398;28;20029;-54
2023/06/09 12:10:04;;;;;;;8.93;7.90;;;28.20;66.30;;;;;;5032999;28;20039;-55
2023/06/09 12:12:52;;;;;;;8.85;7.95;;;28.50;66.60;;;;;;5031261;28;20025;-56
2023/06/09 12:15:38;;;;;;;8.73;7.88;;;28.60;65.80;;;;;;5032608;28;20033;-52
2023/06/09 12:18:23;;;;;;;9.10;8.20;;;28.70;66.30;;;;;;5031746;28;20026;-52
2023/06/09 12:21:10;;;;;;;9.23;8.18;;;28.90;65.40;;;;;;5012173;28;20465;-50
2023/06/09 12:23:56;;;;;;;8.90;7.75;;;28.80;65.90;;;;;;5012046;28;20495;-56
2023/06/09 12:26:50;;;;;;;9.70;7.78;;;28.90;65.50;;;;;;5012812;28;20032;-54
2023/06/09 12:29:36;;;;;;;;;;;29.10;65.00;;;;;;5013847;28;20014;-55
2023/06/09 12:32:23;;;;;;;9.60;7.72;;;29.10;64.30;;;;;;5027430;28;19921;-50
2023/06/09 12:35:09;;;;;;;11.25;8.20;;;29.20;64.70;;;;;;5030186;28;20029;-50
2023/06/09 12:37:55;;;;;;;8.35;7.00;;;29.50;63.50;;;;;;5031688;28;20037;-50
2023/06/09 12:41:05;;;;;;;8.10;6.95;;;29.60;62.40;;;;;;5033616;28;20026;-54
2023/06/09 12:43:56;;;;;;;7.75;7.05;;;29.80;61.50;;;;;;5039057;28;20026;-52
2023/06/09 12:46:42;;;;;;;8.70;7.60;;;29.90;61.10;;;;;;5034433;28;20112;-54
2023/06/09 12:49:32;;;;;;;9.90;7.68;;;30.00;61.70;;;;;;5020574;28;20038;-56
2023/06/09 12:52:18;;;;;;;15.00;8.60;;;30.10;61.70;;;;;;5018492;28;20029;-56
2023/06/09 12:55:05;;;;;;;10.32;7.78;;;30.20;62.10;;;;;;5018784;28;20022;-55
2023/06/09 12:57:51;;;;;;;10.80;8.40;;;30.30;62.60;;;;;;5019028;28;20044;-54
2023/06/09 13:00:38;;;;;;;9.98;8.18;;;30.50;61.10;;;;;;5018896;28;20034;-56
2023/06/09 13:03:24;;;;;;;9.18;8.18;;;29.80;61.30;;;;;;5019800;28;20042;-54
2023/06/09 13:06:10;;;;;;;8.80;7.90;;;29.50;61.70;;;;;;5019270;28;20030;-56
2023/06/09 13:08:56;;;;;;;13.63;8.30;;;29.70;62.00;;;;;;5019048;28;20499;-55
2023/06/09 13:11:42;;;;;;;10.20;9.25;;;29.80;62.60;;;;;;5019546;28;20064;-56
2023/06/09 13:14:28;;;;;;;13.93;11.10;;;29.90;61.80;;;;;;5021872;28;20124;-56
2023/06/09 13:17:14;;;;;;;9.38;8.48;;;30.00;62.40;;;;;;5037514;28;20595;-53
2023/06/09 13:20:02;;;;;;;9.10;8.15;;;29.80;61.70;;;;;;5038433;28;20029;-55
2023/06/09 13:22:47;;;;;;;10.80;8.63;;;29.40;61.10;;;;;;5037415;28;20152;-54
2023/06/09 13:25:34;;;;;;;9.23;8.43;;;29.60;61.60;;;;;;5038744;28;20017;-52
2023/06/09 13:28:20;;;;;;;9.55;7.63;;;29.90;61.40;;;;;;5037866;28;20037;-53
2023/06/09 13:31:06;;;;;;;9.38;8.48;;;30.00;60.70;;;;;;5039762;28;20091;-55
2023/06/09 13:33:52;;;;;;;9.18;8.38;;;30.00;60.30;;;;;;5036868;28;20378;-56
2023/06/09 13:36:38;;;;;;;9.90;8.05;;;30.00;60.70;;;;;;5037326;28;20033;-56
2023/06/09 13:39:25;;;;;;;10.73;9.63;;;30.10;60.70;;;;;;5036577;28;20030;-55
2023/06/09 13:42:11;;;;;;;10.20;8.80;;;30.60;61.70;;;;;;5024745;28;20519;-56
2023/06/09 13:44:56;;;;;;;11.35;8.90;;;31.10;60.10;;;;;;5019192;28;20638;-52
2023/06/09 13:47:43;;;;;;;10.23;7.97;;;30.70;59.20;;;;;;5017562;28;20406;-54
2023/06/09 13:50:29;;;;;;;9.65;8.55;;;30.80;59.80;;;;;;5019214;28;20467;-55
2023/06/09 13:53:15;;;;;;;10.88;8.73;;;31.00;59.10;;;;;;5015052;28;20080;-53
2023/06/09 13:56:01;;;;;;;9.20;8.30;;;30.40;58.80;;;;;;5034983;28;20029;-55
2023/06/09 13:58:47;;;;;;;9.90;8.55;;;29.90;58.90;;;;;;5035023;28;20069;-55
2023/06/09 14:01:36;;;;;;;8.52;7.82;;;29.50;59.60;;;;;;5034422;28;20083;-52
2023/06/09 14:04:21;;;;;;;10.15;8.00;;;29.90;60.20;;;;;;5034907;28;20026;-55
2023/06/09 14:07:07;;;;;;;9.57;8.52;;;30.40;59.00;;;;;;5028721;28;20088;-52
2023/06/09 14:09:55;;;;;;;9.80;8.10;;;30.80;59.60;;;;;;5042061;28;20029;-52
2023/06/09 14:12:47;;;;;;;10.52;8.77;;;31.10;58.90;;;;;;5034605;28;20437;-52
2023/06/09 14:15:33;;;;;;;9.32;8.48;;;31.00;58.60;;;;;;5033610;28;20061;-52
2023/06/09 14:18:19;;;;;;;9.77;8.48;;;30.50;58.60;;;;;;5033623;28;20036;-56